createdAt,value
2023-02-28T00:05:21.399Z,99.90
2023-02-28T00:11:23.617Z,99.90
2023-02-28T00:17:25.592Z,99.90
2023-02-28T00:23:28.430Z,99.90
2023-02-28T00:29:30.334Z,99.90
2023-02-28T00:35:32.251Z,99.90
2023-02-28T00:41:34.149Z,99.90
2023-02-28T00:47:36.192Z,99.90
2023-02-28T00:53:38.301Z,99.90
2023-02-28T00:59:40.209Z,99.90
2023-02-28T01:05:42.410Z,99.90
2023-02-28T01:11:45.078Z,99.90
2023-02-28T01:17:46.969Z,99.90
2023-02-28T01:23:50.151Z,99.90
2023-02-28T01:29:52.260Z,99.90
2023-02-28T01:36:07.245Z,99.90
2023-02-28T01:42:11.009Z,99.90
2023-02-28T01:48:13.664Z,99.90
2023-02-28T01:54:22.861Z,99.90
2023-02-28T02:00:30.275Z,99.90
2023-02-28T02:06:48.536Z,99.90
2023-02-28T02:13:15.202Z,99.90
2023-02-28T02:20:13.502Z,99.90
2023-02-28T02:26:52.243Z,99.90
2023-02-28T02:32:57.040Z,99.90
2023-02-28T02:39:25.082Z,99.90
2023-02-28T02:45:36.781Z,99.90
2023-02-28T02:51:41.789Z,99.90
2023-02-28T02:57:56.531Z,99.90
2023-02-28T03:04:12.055Z,99.90
2023-02-28T03:10:43.111Z,99.90
2023-02-28T03:17:09.360Z,99.90
2023-02-28T03:24:06.814Z,99.90
2023-02-28T03:30:30.517Z,99.90
2023-02-28T03:36:45.335Z,99.90
2023-02-28T03:42:52.637Z,99.90
2023-02-28T03:49:17.116Z,99.90
2023-02-28T03:55:20.280Z,99.90
2023-02-28T04:01:42.722Z,99.90
2023-02-28T04:07:44.646Z,99.90
2023-02-28T04:13:47.612Z,99.90
2023-02-28T04:19:50.840Z,99.90
2023-02-28T04:25:56.573Z,99.90
2023-02-28T04:32:00.488Z,99.90
2023-02-28T04:38:02.534Z,99.90
2023-02-28T04:44:04.726Z,99.90
2023-02-28T04:50:07.065Z,99.90
2023-02-28T04:56:12.763Z,99.90
2023-02-28T05:02:14.746Z,99.90
2023-02-28T05:08:16.652Z,99.90
2023-02-28T05:14:18.568Z,99.90
2023-02-28T05:20:21.882Z,99.90
2023-02-28T05:26:24.972Z,99.90
2023-02-28T05:32:26.899Z,99.90
2023-02-28T05:38:28.823Z,99.90
2023-02-28T05:44:30.949Z,99.90
2023-02-28T05:50:32.851Z,99.90
2023-02-28T05:56:40.110Z,99.90
2023-02-28T06:02:42.148Z,99.90
2023-02-28T06:08:45.619Z,99.90
2023-02-28T06:14:47.563Z,99.90
2023-02-28T06:20:56.572Z,99.90
2023-02-28T06:27:05.725Z,99.90
2023-02-28T06:33:07.643Z,99.90
2023-02-28T06:39:10.817Z,99.90
2023-02-28T06:45:13.399Z,99.90
2023-02-28T06:51:21.313Z,99.90
2023-02-28T06:57:25.837Z,99.90
2023-02-28T07:03:27.830Z,99.90
2023-02-28T07:09:30.670Z,99.90
2023-02-28T07:15:32.789Z,99.90
2023-02-28T07:21:34.700Z,99.90
2023-02-28T07:27:36.913Z,99.90
2023-02-28T07:33:39.619Z,99.90
2023-02-28T07:39:44.735Z,99.90
2023-02-28T07:45:46.648Z,99.90
2023-02-28T07:51:48.677Z,99.90
2023-02-28T07:57:50.565Z,99.90
2023-02-28T08:03:52.667Z,99.90
2023-02-28T08:09:54.670Z,99.90
2023-02-28T08:15:57.556Z,99.90
2023-02-28T08:21:59.946Z,99.90
2023-02-28T08:28:01.931Z,99.90
2023-02-28T08:34:16.019Z,99.90
2023-02-28T08:40:19.821Z,99.90
2023-02-28T08:46:21.893Z,99.90
2023-02-28T08:52:23.783Z,99.90
2023-02-28T08:58:25.848Z,99.90
2023-02-28T09:04:27.908Z,99.90
2023-02-28T09:10:29.823Z,99.90
2023-02-28T09:16:34.776Z,99.90
2023-02-28T09:22:36.872Z,99.90
2023-02-28T09:28:38.749Z,99.90
2023-02-28T09:34:40.804Z,99.90
2023-02-28T09:40:59.093Z,99.90
2023-02-28T09:47:30.379Z,99.90
2023-02-28T09:53:36.346Z,99.90
2023-02-28T10:00:02.305Z,99.90
2023-02-28T10:06:20.615Z,99.90
2023-02-28T10:12:22.671Z,99.90
2023-02-28T10:18:31.815Z,99.90
2023-02-28T10:24:47.724Z,99.90
2023-02-28T10:30:53.092Z,99.90
2023-02-28T10:36:56.778Z,99.90
2023-02-28T10:43:04.032Z,99.90
2023-02-28T10:49:35.708Z,99.90
2023-02-28T10:55:38.169Z,99.90
2023-02-28T11:01:49.952Z,99.90
2023-02-28T11:08:16.014Z,99.90
2023-02-28T11:14:30.642Z,99.90
2023-02-28T11:20:35.347Z,99.90
2023-02-28T11:26:47.234Z,99.90
2023-02-28T11:32:52.316Z,99.90
2023-02-28T11:39:02.676Z,99.90
2023-02-28T11:45:34.711Z,99.90
2023-02-28T11:51:52.959Z,99.90
2023-02-28T11:58:25.319Z,98.60
2023-02-28T12:04:35.942Z,99.90
2023-02-28T12:11:10.195Z,98.50
2023-02-28T12:17:26.940Z,99.00
2023-02-28T12:24:12.149Z,99.20
2023-02-28T12:30:16.752Z,99.90
2023-02-28T12:36:23.096Z,99.90
2023-02-28T12:42:38.239Z,99.40
2023-02-28T12:48:58.654Z,97.70
2023-02-28T12:55:21.997Z,92.50
2023-02-28T13:01:51.390Z,92.20
2023-02-28T13:08:29.673Z,93.10
2023-02-28T13:14:38.376Z,90.90
2023-02-28T13:20:49.252Z,88.90
2023-02-28T13:26:53.819Z,86.30
2023-02-28T13:33:27.621Z,77.40
2023-02-28T13:39:36.402Z,76.00
2023-02-28T13:45:40.609Z,77.10
2023-02-28T13:52:15.994Z,75.00
2023-02-28T13:58:23.648Z,70.60
2023-02-28T14:04:58.563Z,68.00
2023-02-28T14:11:10.611Z,66.40
2023-02-28T14:17:18.081Z,67.30
2023-02-28T14:23:57.745Z,66.10
2023-02-28T14:30:15.347Z,61.70
2023-02-28T14:36:27.403Z,61.10
2023-02-28T14:42:42.598Z,62.70
2023-02-28T14:48:48.674Z,63.10
2023-02-28T14:55:11.401Z,63.80
2023-02-28T15:01:13.353Z,62.60
2023-02-28T15:07:16.465Z,65.40
2023-02-28T15:13:20.113Z,68.00
2023-02-28T15:19:42.565Z,71.00
2023-02-28T15:25:45.089Z,71.60
2023-02-28T15:31:58.091Z,72.60
2023-02-28T15:38:12.318Z,76.40
2023-02-28T15:44:37.906Z,78.90
2023-02-28T15:50:40.107Z,85.00
2023-02-28T15:56:53.954Z,88.50
2023-02-28T16:02:56.136Z,88.80
2023-02-28T16:08:58.229Z,90.00
2023-02-28T16:15:08.418Z,86.40
2023-02-28T16:21:10.361Z,84.40
2023-02-28T16:27:38.262Z,84.70
2023-02-28T16:33:40.157Z,84.70
2023-02-28T16:39:43.492Z,90.00
2023-02-28T16:45:46.250Z,92.90
2023-02-28T16:51:48.636Z,96.20
2023-02-28T16:58:02.987Z,99.90
2023-02-28T17:04:05.024Z,99.90
2023-02-28T17:10:21.401Z,99.90
2023-02-28T17:16:31.256Z,99.90
2023-02-28T17:22:33.836Z,99.90
2023-02-28T17:28:35.768Z,99.90
2023-02-28T17:34:38.211Z,99.90
2023-02-28T17:40:40.109Z,99.90
2023-02-28T17:46:43.111Z,99.90
2023-02-28T17:52:45.023Z,99.90
2023-02-28T17:58:47.484Z,99.90
2023-02-28T18:04:49.379Z,99.90
2023-02-28T18:10:51.369Z,99.90
2023-02-28T18:16:55.144Z,99.90
2023-02-28T18:22:57.109Z,99.90
2023-02-28T18:28:59.063Z,99.90
2023-02-28T18:35:01.019Z,99.90
2023-02-28T18:41:05.631Z,99.90
2023-02-28T18:47:07.986Z,99.90
2023-02-28T18:53:09.906Z,99.90
2023-02-28T18:59:12.502Z,99.90
2023-02-28T19:05:14.481Z,99.90
2023-02-28T19:11:19.422Z,99.90
2023-02-28T19:17:21.675Z,99.90
2023-02-28T19:23:23.553Z,99.90
2023-02-28T19:29:25.511Z,99.90
2023-02-28T19:35:27.558Z,99.90
2023-02-28T19:41:29.656Z,99.90
2023-02-28T19:47:31.720Z,99.90
2023-02-28T19:53:36.318Z,99.90
2023-02-28T19:59:40.228Z,99.90
2023-02-28T20:05:42.248Z,99.90
2023-02-28T20:11:45.905Z,99.90
2023-02-28T20:17:47.854Z,99.90
2023-02-28T20:23:49.993Z,99.90
2023-02-28T20:29:53.189Z,99.90
2023-02-28T20:36:05.586Z,99.90
2023-02-28T20:42:07.601Z,99.90
2023-02-28T20:48:09.470Z,99.90
2023-02-28T20:54:11.783Z,99.90
2023-02-28T21:00:19.437Z,99.90
2023-02-28T21:06:25.037Z,99.90
2023-02-28T21:12:26.943Z,99.90
2023-02-28T21:18:28.815Z,99.90
2023-02-28T21:24:31.123Z,99.90
2023-02-28T21:30:33.019Z,99.90
2023-02-28T21:36:45.200Z,99.90
2023-02-28T21:42:47.096Z,99.90
2023-02-28T21:48:49.786Z,99.90
2023-02-28T21:54:51.690Z,99.90
2023-02-28T22:00:53.594Z,99.90
2023-02-28T22:06:59.535Z,99.90
2023-02-28T22:13:03.628Z,99.90
2023-02-28T22:19:07.871Z,99.90
2023-02-28T22:25:10.335Z,99.90
2023-02-28T22:31:15.643Z,99.90
2023-02-28T22:37:17.685Z,99.90
2023-02-28T22:43:19.595Z,99.90
2023-02-28T22:49:21.528Z,99.90
2023-02-28T22:55:23.472Z,99.90
2023-02-28T23:01:28.520Z,99.90
2023-02-28T23:07:30.458Z,99.90
2023-02-28T23:13:32.390Z,99.90
2023-02-28T23:19:34.332Z,99.90
2023-02-28T23:25:40.431Z,99.90
2023-02-28T23:31:42.802Z,99.90
2023-02-28T23:37:44.913Z,99.90
2023-02-28T23:43:47.643Z,99.90
2023-02-28T23:49:49.776Z,99.90
2023-02-28T23:55:52.217Z,99.90
